sensor_id;sensor_type;location;lat;lon;timestamp;temperature;humidity
27276;DHT22;14772;47.398;8.080;2022-08-21T00:00:30;20.20;99.90
27276;DHT22;14772;47.398;8.080;2022-08-21T00:05:27;20.20;99.90
27276;DHT22;14772;47.398;8.080;2022-08-21T00:10:25;20.30;99.90
27276;DHT22;14772;47.398;8.080;2022-08-21T00:15:25;20.20;99.90
27276;DHT22;14772;47.398;8.080;2022-08-21T00:20:23;20.10;99.90
27276;DHT22;14772;47.398;8.080;2022-08-21T00:25:21;20.20;99.90
27276;DHT22;14772;47.398;8.080;2022-08-21T00:30:19;20.10;99.90
27276;DHT22;14772;47.398;8.080;2022-08-21T00:35:19;20.10;99.90
27276;DHT22;14772;47.398;8.080;2022-08-21T00:40:20;20.10;99.90
27276;DHT22;14772;47.398;8.080;2022-08-21T00:45:17;20.10;99.90
27276;DHT22;14772;47.398;8.080;2022-08-21T00:50:14;20.10;99.90
27276;DHT22;14772;47.398;8.080;2022-08-21T00:55:12;20.10;99.90
27276;DHT22;14772;47.398;8.080;2022-08-21T01:00:14;20.00;99.90
27276;DHT22;14772;47.398;8.080;2022-08-21T01:05:12;20.00;99.90
27276;DHT22;14772;47.398;8.080;2022-08-21T01:10:10;19.90;99.90
27276;DHT22;14772;47.398;8.080;2022-08-21T01:15:08;20.00;99.90
27276;DHT22;14772;47.398;8.080;2022-08-21T01:20:10;20.00;99.90
27276;DHT22;14772;47.398;8.080;2022-08-21T01:25:10;20.00;99.90
27276;DHT22;14772;47.398;8.080;2022-08-21T01:30:11;20.00;99.90
27276;DHT22;14772;47.398;8.080;2022-08-21T01:35:10;19.90;99.90
27276;DHT22;14772;47.398;8.080;2022-08-21T01:40:10;19.90;99.90
27276;DHT22;14772;47.398;8.080;2022-08-21T01:45:10;19.90;99.90
27276;DHT22;14772;47.398;8.080;2022-08-21T01:50:12;20.00;99.90
27276;DHT22;14772;47.398;8.080;2022-08-21T01:55:10;19.90;99.90
27276;DHT22;14772;47.398;8.080;2022-08-21T02:00:13;20.00;99.90
27276;DHT22;14772;47.398;8.080;2022-08-21T02:05:11;20.00;99.90
27276;DHT22;14772;47.398;8.080;2022-08-21T02:10:11;19.90;99.90
27276;DHT22;14772;47.398;8.080;2022-08-21T02:15:09;19.90;99.90
27276;DHT22;14772;47.398;8.080;2022-08-21T02:20:10;19.80;99.90
27276;DHT22;14772;47.398;8.080;2022-08-21T02:25:08;19.70;99.90
27276;DHT22;14772;47.398;8.080;2022-08-21T02:30:08;19.80;99.90
27276;DHT22;14772;47.398;8.080;2022-08-21T02:35:06;19.80;99.90
27276;DHT22;14772;47.398;8.080;2022-08-21T02:40:06;19.50;99.90
27276;DHT22;14772;47.398;8.080;2022-08-21T02:45:06;19.60;99.90
27276;DHT22;14772;47.398;8.080;2022-08-21T02:50:04;19.70;99.90
27276;DHT22;14772;47.398;8.080;2022-08-21T02:55:02;19.70;99.90
27276;DHT22;14772;47.398;8.080;2022-08-21T02:59:59;19.70;99.90
27276;DHT22;14772;47.398;8.080;2022-08-21T03:04:56;19.80;99.90
27276;DHT22;14772;47.398;8.080;2022-08-21T03:09:53;19.80;99.90
27276;DHT22;14772;47.398;8.080;2022-08-21T03:14:50;19.70;99.90
27276;DHT22;14772;47.398;8.080;2022-08-21T03:19:48;19.70;99.90
27276;DHT22;14772;47.398;8.080;2022-08-21T03:24:45;19.70;99.90
27276;DHT22;14772;47.398;8.080;2022-08-21T03:29:42;19.80;99.90
27276;DHT22;14772;47.398;8.080;2022-08-21T03:34:39;19.80;99.90
27276;DHT22;14772;47.398;8.080;2022-08-21T03:39:36;19.90;99.90
27276;DHT22;14772;47.398;8.080;2022-08-21T03:44:33;19.80;99.90
27276;DHT22;14772;47.398;8.080;2022-08-21T03:49:31;19.80;99.90
27276;DHT22;14772;47.398;8.080;2022-08-21T03:54:28;19.70;99.90
27276;DHT22;14772;47.398;8.080;2022-08-21T03:59:26;19.40;99.90
27276;DHT22;14772;47.398;8.080;2022-08-21T04:04:23;19.50;99.90
27276;DHT22;14772;47.398;8.080;2022-08-21T04:09:20;19.60;99.90
27276;DHT22;14772;47.398;8.080;2022-08-21T04:14:17;19.70;99.90
27276;DHT22;14772;47.398;8.080;2022-08-21T04:19:15;19.60;99.90
27276;DHT22;14772;47.398;8.080;2022-08-21T04:24:12;19.60;99.90
27276;DHT22;14772;47.398;8.080;2022-08-21T04:29:09;19.70;99.90
27276;DHT22;14772;47.398;8.080;2022-08-21T04:34:06;19.70;99.90
27276;DHT22;14772;47.398;8.080;2022-08-21T04:39:03;19.60;99.90
27276;DHT22;14772;47.398;8.080;2022-08-21T04:44:00;19.50;99.90
27276;DHT22;14772;47.398;8.080;2022-08-21T04:48:58;19.70;99.90
27276;DHT22;14772;47.398;8.080;2022-08-21T04:53:57;19.60;99.90
27276;DHT22;14772;47.398;8.080;2022-08-21T04:58:58;19.50;99.90
27276;DHT22;14772;47.398;8.080;2022-08-21T05:03:59;19.60;99.90
27276;DHT22;14772;47.398;8.080;2022-08-21T05:08:57;19.60;99.90
27276;DHT22;14772;47.398;8.080;2022-08-21T05:13:54;19.60;99.90
27276;DHT22;14772;47.398;8.080;2022-08-21T05:18:52;19.40;99.90
27276;DHT22;14772;47.398;8.080;2022-08-21T05:23:49;19.20;99.90
27276;DHT22;14772;47.398;8.080;2022-08-21T05:28:46;19.10;99.90
27276;DHT22;14772;47.398;8.080;2022-08-21T05:33:43;19.10;99.90
27276;DHT22;14772;47.398;8.080;2022-08-21T05:38:40;19.20;99.90
27276;DHT22;14772;47.398;8.080;2022-08-21T05:43:38;19.30;99.90
27276;DHT22;14772;47.398;8.080;2022-08-21T05:48:41;19.50;99.90
27276;DHT22;14772;47.398;8.080;2022-08-21T05:53:39;19.50;99.90
27276;DHT22;14772;47.398;8.080;2022-08-21T05:58:37;19.60;99.90
27276;DHT22;14772;47.398;8.080;2022-08-21T06:03:36;19.60;99.90
27276;DHT22;14772;47.398;8.080;2022-08-21T06:08:34;19.60;99.90
27276;DHT22;14772;47.398;8.080;2022-08-21T06:13:32;19.70;99.90
27276;DHT22;14772;47.398;8.080;2022-08-21T06:18:30;19.80;99.90
27276;DHT22;14772;47.398;8.080;2022-08-21T06:23:27;19.80;99.90
27276;DHT22;14772;47.398;8.080;2022-08-21T06:28:25;19.90;99.90
27276;DHT22;14772;47.398;8.080;2022-08-21T07:01:36;20.00;99.90
27276;DHT22;14772;47.398;8.080;2022-08-21T07:52:09;20.60;99.90
27276;DHT22;14772;47.398;8.080;2022-08-21T07:57:06;20.80;99.90
27276;DHT22;14772;47.398;8.080;2022-08-21T08:02:04;20.90;99.90
27276;DHT22;14772;47.398;8.080;2022-08-21T08:07:04;20.70;99.90
27276;DHT22;14772;47.398;8.080;2022-08-21T08:12:01;20.80;99.90
27276;DHT22;14772;47.398;8.080;2022-08-21T08:16:58;20.90;99.90
27276;DHT22;14772;47.398;8.080;2022-08-21T08:21:56;20.90;99.90
27276;DHT22;14772;47.398;8.080;2022-08-21T08:26:53;21.10;99.90
27276;DHT22;14772;47.398;8.080;2022-08-21T08:31:50;21.10;99.90
27276;DHT22;14772;47.398;8.080;2022-08-21T08:36:49;21.00;99.90
27276;DHT22;14772;47.398;8.080;2022-08-21T08:41:47;21.20;99.90
27276;DHT22;14772;47.398;8.080;2022-08-21T08:46:47;21.30;99.90
27276;DHT22;14772;47.398;8.080;2022-08-21T08:51:48;21.50;99.90
27276;DHT22;14772;47.398;8.080;2022-08-21T08:56:46;21.50;99.90
27276;DHT22;14772;47.398;8.080;2022-08-21T09:01:44;21.60;99.90
27276;DHT22;14772;47.398;8.080;2022-08-21T09:06:52;21.80;99.90
27276;DHT22;14772;47.398;8.080;2022-08-21T09:11:54;21.80;99.90
27276;DHT22;14772;47.398;8.080;2022-08-21T09:16:55;21.80;99.90
27276;DHT22;14772;47.398;8.080;2022-08-21T09:21:58;21.80;99.90
27276;DHT22;14772;47.398;8.080;2022-08-21T09:27:03;21.90;99.90
27276;DHT22;14772;47.398;8.080;2022-08-21T09:31:56;22.10;99.90
27276;DHT22;14772;47.398;8.080;2022-08-21T09:36:54;22.10;99.90
27276;DHT22;14772;47.398;8.080;2022-08-21T09:41:57;22.20;99.90
27276;DHT22;14772;47.398;8.080;2022-08-21T09:46:54;22.30;99.90
27276;DHT22;14772;47.398;8.080;2022-08-21T09:51:53;22.20;99.90
27276;DHT22;14772;47.398;8.080;2022-08-21T09:56:56;22.20;99.90
27276;DHT22;14772;47.398;8.080;2022-08-21T10:01:54;22.40;99.90
27276;DHT22;14772;47.398;8.080;2022-08-21T10:06:51;22.00;99.90
27276;DHT22;14772;47.398;8.080;2022-08-21T10:11:58;22.20;99.90
27276;DHT22;14772;47.398;8.080;2022-08-21T10:16:59;22.30;99.90
27276;DHT22;14772;47.398;8.080;2022-08-21T10:22:05;22.40;99.90
27276;DHT22;14772;47.398;8.080;2022-08-21T10:27:12;22.20;99.90
27276;DHT22;14772;47.398;8.080;2022-08-21T10:32:15;22.50;99.90
27276;DHT22;14772;47.398;8.080;2022-08-21T10:37:21;22.40;99.90
27276;DHT22;14772;47.398;8.080;2022-08-21T10:42:39;22.40;99.90
27276;DHT22;14772;47.398;8.080;2022-08-21T10:47:46;22.50;99.90
27276;DHT22;14772;47.398;8.080;2022-08-21T10:52:52;22.50;99.90
27276;DHT22;14772;47.398;8.080;2022-08-21T10:57:54;22.70;99.90
27276;DHT22;14772;47.398;8.080;2022-08-21T11:08:06;22.90;99.90
27276;DHT22;14772;47.398;8.080;2022-08-21T11:13:08;23.10;99.90
27276;DHT22;14772;47.398;8.080;2022-08-21T11:18:17;23.30;99.90
27276;DHT22;14772;47.398;8.080;2022-08-21T11:23:18;23.50;99.90
27276;DHT22;14772;47.398;8.080;2022-08-21T11:33:46;23.80;99.90
27276;DHT22;14772;47.398;8.080;2022-08-21T11:38:46;24.00;99.90
27276;DHT22;14772;47.398;8.080;2022-08-21T11:43:47;24.20;99.90
27276;DHT22;14772;47.398;8.080;2022-08-21T11:48:51;24.40;99.90
27276;DHT22;14772;47.398;8.080;2022-08-21T11:53:49;24.60;99.90
27276;DHT22;14772;47.398;8.080;2022-08-21T12:04:03;24.80;99.90
27276;DHT22;14772;47.398;8.080;2022-08-21T12:09:04;24.70;99.90
27276;DHT22;14772;47.398;8.080;2022-08-21T12:14:12;24.90;99.90
27276;DHT22;14772;47.398;8.080;2022-08-21T12:19:12;24.90;99.90
27276;DHT22;14772;47.398;8.080;2022-08-21T12:24:18;25.00;99.90
27276;DHT22;14772;47.398;8.080;2022-08-21T12:29:22;25.20;99.90
27276;DHT22;14772;47.398;8.080;2022-08-21T12:34:20;24.80;99.90
27276;DHT22;14772;47.398;8.080;2022-08-21T12:39:23;24.90;99.90
27276;DHT22;14772;47.398;8.080;2022-08-21T12:49:43;25.00;99.90
27276;DHT22;14772;47.398;8.080;2022-08-21T12:54:42;25.10;99.90
27276;DHT22;14772;47.398;8.080;2022-08-21T12:59:40;25.40;99.90
27276;DHT22;14772;47.398;8.080;2022-08-21T13:04:39;25.70;99.90
27276;DHT22;14772;47.398;8.080;2022-08-21T13:09:41;26.00;99.90
27276;DHT22;14772;47.398;8.080;2022-08-21T13:14:40;26.20;99.20
27276;DHT22;14772;47.398;8.080;2022-08-21T13:24:39;26.40;96.20
27276;DHT22;14772;47.398;8.080;2022-08-21T13:29:36;26.60;97.20
27276;DHT22;14772;47.398;8.080;2022-08-21T13:39:50;26.60;95.10
27276;DHT22;14772;47.398;8.080;2022-08-21T13:44:48;26.70;94.10
27276;DHT22;14772;47.398;8.080;2022-08-21T13:49:49;26.70;92.90
27276;DHT22;14772;47.398;8.080;2022-08-21T13:54:53;26.90;93.60
27276;DHT22;14772;47.398;8.080;2022-08-21T13:59:51;27.20;91.40
27276;DHT22;14772;47.398;8.080;2022-08-21T14:04:52;27.40;90.90
27276;DHT22;14772;47.398;8.080;2022-08-21T14:09:50;27.70;91.10
27276;DHT22;14772;47.398;8.080;2022-08-21T14:14:48;27.80;88.10
27276;DHT22;14772;47.398;8.080;2022-08-21T14:19:46;27.90;87.70
27276;DHT22;14772;47.398;8.080;2022-08-21T14:24:43;28.10;88.30
27276;DHT22;14772;47.398;8.080;2022-08-21T14:29:41;28.20;84.50
27276;DHT22;14772;47.398;8.080;2022-08-21T14:34:38;28.50;83.00
27276;DHT22;14772;47.398;8.080;2022-08-21T14:39:35;28.70;78.60
27276;DHT22;14772;47.398;8.080;2022-08-21T14:44:33;28.90;77.80
27276;DHT22;14772;47.398;8.080;2022-08-21T14:49:31;28.70;72.70
27276;DHT22;14772;47.398;8.080;2022-08-21T14:54:29;28.90;72.20
27276;DHT22;14772;47.398;8.080;2022-08-21T14:59:27;29.00;70.00
27276;DHT22;14772;47.398;8.080;2022-08-21T15:04:24;29.20;69.50
27276;DHT22;14772;47.398;8.080;2022-08-21T15:09:21;29.30;69.50
27276;DHT22;14772;47.398;8.080;2022-08-21T15:14:25;29.50;70.30
27276;DHT22;14772;47.398;8.080;2022-08-21T15:19:23;29.80;70.00
27276;DHT22;14772;47.398;8.080;2022-08-21T15:24:20;30.00;68.50
27276;DHT22;14772;47.398;8.080;2022-08-21T15:29:17;29.90;69.50
27276;DHT22;14772;47.398;8.080;2022-08-21T15:34:15;29.80;70.30
27276;DHT22;14772;47.398;8.080;2022-08-21T15:39:12;30.10;68.00
27276;DHT22;14772;47.398;8.080;2022-08-21T15:44:11;30.00;67.60
27276;DHT22;14772;47.398;8.080;2022-08-21T15:49:09;29.80;68.40
27276;DHT22;14772;47.398;8.080;2022-08-21T15:54:06;29.90;68.30
27276;DHT22;14772;47.398;8.080;2022-08-21T16:04:27;29.90;72.30
27276;DHT22;14772;47.398;8.080;2022-08-21T16:09:29;29.70;72.00
27276;DHT22;14772;47.398;8.080;2022-08-21T16:14:26;29.50;72.50
27276;DHT22;14772;47.398;8.080;2022-08-21T16:19:26;29.60;72.30
27276;DHT22;14772;47.398;8.080;2022-08-21T16:24:24;29.70;71.60
27276;DHT22;14772;47.398;8.080;2022-08-21T16:29:22;29.70;72.20
27276;DHT22;14772;47.398;8.080;2022-08-21T16:40:06;29.60;70.30
27276;DHT22;14772;47.398;8.080;2022-08-21T16:50:43;29.10;70.90
27276;DHT22;14772;47.398;8.080;2022-08-21T16:55:49;29.20;71.80
27276;DHT22;14772;47.398;8.080;2022-08-21T17:00:53;28.80;72.00
27276;DHT22;14772;47.398;8.080;2022-08-21T17:05:53;28.60;74.40
27276;DHT22;14772;47.398;8.080;2022-08-21T17:10:51;28.40;74.00
27276;DHT22;14772;47.398;8.080;2022-08-21T17:15:48;28.30;74.90
27276;DHT22;14772;47.398;8.080;2022-08-21T17:20:46;28.00;75.40
27276;DHT22;14772;47.398;8.080;2022-08-21T17:25:45;27.60;77.40
27276;DHT22;14772;47.398;8.080;2022-08-21T17:30:43;27.50;77.80
27276;DHT22;14772;47.398;8.080;2022-08-21T17:35:41;27.10;78.60
27276;DHT22;14772;47.398;8.080;2022-08-21T17:40:39;26.80;79.60
27276;DHT22;14772;47.398;8.080;2022-08-21T17:45:36;26.80;80.70
27276;DHT22;14772;47.398;8.080;2022-08-21T17:50:34;26.30;82.80
27276;DHT22;14772;47.398;8.080;2022-08-21T17:55:33;26.30;83.50
27276;DHT22;14772;47.398;8.080;2022-08-21T18:00:31;26.20;84.50
27276;DHT22;14772;47.398;8.080;2022-08-21T18:05:29;26.20;85.40
27276;DHT22;14772;47.398;8.080;2022-08-21T18:10:27;26.00;86.50
27276;DHT22;14772;47.398;8.080;2022-08-21T18:15:24;25.70;87.20
27276;DHT22;14772;47.398;8.080;2022-08-21T18:20:23;25.60;88.10
27276;DHT22;14772;47.398;8.080;2022-08-21T18:25:20;25.50;89.40
27276;DHT22;14772;47.398;8.080;2022-08-21T18:30:19;25.50;89.90
27276;DHT22;14772;47.398;8.080;2022-08-21T18:35:17;25.70;90.30
27276;DHT22;14772;47.398;8.080;2022-08-21T18:56:52;25.30;92.90
27276;DHT22;14772;47.398;8.080;2022-08-21T19:07:46;25.10;95.50
27276;DHT22;14772;47.398;8.080;2022-08-21T19:12:45;24.90;97.00
27276;DHT22;14772;47.398;8.080;2022-08-21T19:17:43;24.80;98.30
27276;DHT22;14772;47.398;8.080;2022-08-21T19:22:44;24.60;99.30
27276;DHT22;14772;47.398;8.080;2022-08-21T19:27:41;24.50;99.90
27276;DHT22;14772;47.398;8.080;2022-08-21T19:32:41;24.40;99.90
27276;DHT22;14772;47.398;8.080;2022-08-21T19:37:39;24.30;99.90
27276;DHT22;14772;47.398;8.080;2022-08-21T19:42:36;24.20;99.90
27276;DHT22;14772;47.398;8.080;2022-08-21T19:47:34;24.10;99.90
27276;DHT22;14772;47.398;8.080;2022-08-21T19:52:32;23.90;99.90
27276;DHT22;14772;47.398;8.080;2022-08-21T19:57:29;23.90;99.90
27276;DHT22;14772;47.398;8.080;2022-08-21T20:02:26;24.00;99.90
27276;DHT22;14772;47.398;8.080;2022-08-21T20:07:24;24.00;99.90
27276;DHT22;14772;47.398;8.080;2022-08-21T20:12:21;23.90;99.90
27276;DHT22;14772;47.398;8.080;2022-08-21T20:17:19;23.80;99.90
27276;DHT22;14772;47.398;8.080;2022-08-21T20:22:17;23.70;99.90
27276;DHT22;14772;47.398;8.080;2022-08-21T20:27:18;23.50;99.90
27276;DHT22;14772;47.398;8.080;2022-08-21T20:32:15;23.40;99.90
27276;DHT22;14772;47.398;8.080;2022-08-21T20:37:12;23.30;99.90
27276;DHT22;14772;47.398;8.080;2022-08-21T20:42:09;23.30;99.90
27276;DHT22;14772;47.398;8.080;2022-08-21T20:47:07;23.30;99.90
27276;DHT22;14772;47.398;8.080;2022-08-21T20:52:06;23.20;99.90
27276;DHT22;14772;47.398;8.080;2022-08-21T20:57:08;23.10;99.90
27276;DHT22;14772;47.398;8.080;2022-08-21T21:02:12;23.00;99.90
27276;DHT22;14772;47.398;8.080;2022-08-21T21:07:12;22.90;99.90
27276;DHT22;14772;47.398;8.080;2022-08-21T21:12:13;23.00;99.90
27276;DHT22;14772;47.398;8.080;2022-08-21T21:17:16;22.90;99.90
27276;DHT22;14772;47.398;8.080;2022-08-21T21:22:18;22.80;99.90
27276;DHT22;14772;47.398;8.080;2022-08-21T21:27:19;22.80;99.90
27276;DHT22;14772;47.398;8.080;2022-08-21T21:32:16;22.80;99.90
27276;DHT22;14772;47.398;8.080;2022-08-21T21:37:18;22.80;99.90
27276;DHT22;14772;47.398;8.080;2022-08-21T21:42:17;22.80;99.90
27276;DHT22;14772;47.398;8.080;2022-08-21T21:47:20;22.70;99.90
27276;DHT22;14772;47.398;8.080;2022-08-21T21:52:33;22.60;99.90
27276;DHT22;14772;47.398;8.080;2022-08-21T21:57:40;22.60;99.90
27276;DHT22;14772;47.398;8.080;2022-08-21T22:02:42;22.50;99.90
27276;DHT22;14772;47.398;8.080;2022-08-21T22:07:42;22.50;99.90
27276;DHT22;14772;47.398;8.080;2022-08-21T22:12:45;22.50;99.90
27276;DHT22;14772;47.398;8.080;2022-08-21T22:17:46;22.40;99.90
27276;DHT22;14772;47.398;8.080;2022-08-21T22:22:45;22.40;99.90
27276;DHT22;14772;47.398;8.080;2022-08-21T22:27:43;22.40;99.90
27276;DHT22;14772;47.398;8.080;2022-08-21T22:32:43;22.30;99.90
27276;DHT22;14772;47.398;8.080;2022-08-21T22:37:43;22.30;99.90
27276;DHT22;14772;47.398;8.080;2022-08-21T22:42:41;22.20;99.90
27276;DHT22;14772;47.398;8.080;2022-08-21T22:47:40;22.20;99.90
27276;DHT22;14772;47.398;8.080;2022-08-21T22:52:42;22.20;99.90
27276;DHT22;14772;47.398;8.080;2022-08-21T22:57:38;22.20;99.90
27276;DHT22;14772;47.398;8.080;2022-08-21T23:02:38;22.20;99.90
27276;DHT22;14772;47.398;8.080;2022-08-21T23:07:39;22.10;99.90
27276;DHT22;14772;47.398;8.080;2022-08-21T23:12:38;22.10;99.90
27276;DHT22;14772;47.398;8.080;2022-08-21T23:17:40;22.10;99.90
27276;DHT22;14772;47.398;8.080;2022-08-21T23:22:42;22.10;99.90
27276;DHT22;14772;47.398;8.080;2022-08-21T23:27:47;22.00;99.90
27276;DHT22;14772;47.398;8.080;2022-08-21T23:33:01;22.00;99.90
27276;DHT22;14772;47.398;8.080;2022-08-21T23:38:01;21.90;99.90
27276;DHT22;14772;47.398;8.080;2022-08-21T23:43:14;21.90;99.90
27276;DHT22;14772;47.398;8.080;2022-08-21T23:48:12;21.90;99.90
27276;DHT22;14772;47.398;8.080;2022-08-21T23:53:16;21.90;99.90
27276;DHT22;14772;47.398;8.080;2022-08-21T23:58:21;21.90;99.90
